Terminal Aerodrome Forecast
Issued by NWS Cleveland, OH

Home | Current Version | Previous Version | Graphics & Text | Print | Product List | Glossary On
Versions: 1 2 3 4 5 6 7 8 9 10 11 12 13 14 15 16 17 18 19 20 21 22 23 24 25 26 27 28 29 30 31 32 33
413
FTUS41 KCLE 162047 AAB
TAFCLE
TAF AMD
KCLE 162047Z 1621/1724 12004KT 6SM -RA BR SCT012 OVC035
      TEMPO 1621/1624 3SM -RA BR OVC015
     FM170200 10008KT 2SM -RA BR OVC008
     FM170600 15008KT 1 1/2SM -RA OVC005=

USA.gov is the U.S. government's official web portal to all federal, state and local government web resources and services.